Main page
METAR-TAF:

METAR-TAF

Airports :

Ghriss, Algeria

Ghriss Airport

latitude: 35-12N, longitude: 000-08E, elevation: 514 m

Current weather observation

The report was made 59 minutes ago, at 23:00 UTC
Calm wind
Temperature 16°C
Humidity 59%
Pressure 1022 hPa
Visibility 10 km or more
no clouds below 1500 m and no cumulonimbus

METAR: DAOV 192300Z 00000KT CAVOK 16/08 Q1022

Time: 00:59 (23:59 UTC)

Forecast

The report was made 59 minutes ago, at 23:00 UTC
Forecast valid from 20 at 00 UTC to 20 at 09 UTC
Wind 2 kt from variable directions
Visibility 10 km or more
no clouds below 1500 m and no cumulonimbus
Becoming
from 20 at 07 UTC to 20 at 09 UTC
Wind 8 kt from the South/Southeast

TAF: DAOV 192300Z 2000/2009 VRB02KT CAVOK BECMG 2007/2009 16008KT

Weather observations and forecasts of more than 4000 airports (METAR and TAF reports).

The available stations are represented by yellow and red dots on the map.

Hover mouse over dot to see the name of the station.

Then click to see weather observations and forecasts.

To change the map : click on the green buttons with a black cross to zoom in, on the green button with a dash to zoom out, or on the green arrows for adjacent maps.


METAR-TAF: